Time;durP1;ratioP1;P1;durP2;ratioP2;P2;SDS_P1;SDS_P2;PMS_P1;PMS_P2;Temp;Humidity;BMP_temperature;BMP_pressure;BME280_temperature;BME280_humidity;BME280_pressure;Samples;Min_cycle;Max_cycle;Signal;HPM_P1;HPM_P2
2021/10/12 00:01:49;;;;;;;75.00;40.38;;;;;;;5.20;72.76;97275.85;1781149;80;25684;-86
2021/10/12 00:04:16;;;;;;;69.03;40.03;;;;;;;5.22;72.78;97275.17;1781095;80;25694;-88
2021/10/12 00:06:42;;;;;;;69.30;38.78;;;;;;;5.24;72.79;97270.48;1781134;80;27210;-86
2021/10/12 00:09:09;;;;;;;72.08;39.38;;;;;;;5.28;72.83;97271.78;1780965;80;25804;-85
2021/10/12 00:11:36;;;;;;;75.32;40.35;;;;;;;5.31;72.91;97268.72;1781049;80;25715;-85
2021/10/12 00:14:02;;;;;;;66.90;38.80;;;;;;;5.33;72.89;97266.70;1780955;80;26451;-85
2021/10/12 00:16:29;;;;;;;68.28;39.23;;;;;;;5.35;72.96;97272.70;1781116;80;25690;-86
2021/10/12 00:18:55;;;;;;;69.65;39.40;;;;;;;5.38;72.89;97265.66;1781064;80;28157;-86
2021/10/12 00:21:22;;;;;;;70.65;39.05;;;;;;;5.39;72.93;97265.98;1781063;80;25264;-88
2021/10/12 00:23:49;;;;;;;61.05;35.80;;;;;;;5.40;73.04;97264.98;1781064;80;25747;-86
2021/10/12 00:26:15;;;;;;;73.85;38.38;;;;;;;5.41;73.10;97265.81;1781129;80;26309;-87
2021/10/12 00:28:42;;;;;;;71.47;39.27;;;;;;;5.40;73.19;97257.45;1794024;78;25880;-85
2021/10/12 00:31:08;;;;;;;71.10;40.30;;;;;;;5.38;73.18;97248.27;1796893;78;27331;-87
2021/10/12 00:33:35;;;;;;;74.17;41.35;;;;;;;5.39;73.25;97251.27;1796913;78;25814;-87
2021/10/12 00:36:01;;;;;;;76.33;42.90;;;;;;;5.37;73.34;97246.59;1762253;79;25874;-85
2021/10/12 00:38:28;;;;;;;73.60;41.80;;;;;;;5.39;73.36;97253.95;1784070;78;25690;-87
2021/10/12 00:40:55;;;;;;;76.17;42.33;;;;;;;5.41;73.47;97243.89;1796760;78;25639;-87
2021/10/12 00:43:25;;;;;;;75.40;41.08;;;;;;;5.43;73.37;97253.08;1796920;78;27465;-86
2021/10/12 00:45:50;;;;;;;72.22;41.13;;;;;;;5.46;73.44;97245.16;1796419;78;25713;-85
2021/10/12 00:48:16;;;;;;;72.03;42.45;;;;;;;5.47;73.45;97240.97;1797047;78;25832;-86
2021/10/12 00:50:43;;;;;;;73.17;40.23;;;;;;;5.50;73.40;97243.80;1796896;78;26337;-86
2021/10/12 00:53:10;;;;;;;70.32;39.55;;;;;;;5.51;73.44;97242.78;1797101;78;25842;-87
2021/10/12 00:55:36;;;;;;;77.92;40.80;;;;;;;5.51;73.57;97240.11;1797128;78;27534;-87
2021/10/12 00:58:07;;;;;;;69.40;39.42;;;;;;;5.53;73.63;97238.91;1796916;78;25731;-86
2021/10/12 01:00:31;;;;;;;69.45;39.10;;;;;;;5.54;73.63;97234.39;1796403;78;25834;-87
2021/10/12 01:02:58;;;;;;;69.87;40.28;;;;;;;5.55;73.67;97234.72;1796885;78;25781;-86
2021/10/12 01:05:24;;;;;;;69.22;39.65;;;;;;;5.56;73.67;97226.47;1797033;78;25697;-87
2021/10/12 01:07:51;;;;;;;63.02;38.98;;;;;;;5.59;73.60;97234.66;1796889;78;27756;-86
2021/10/12 01:10:18;;;;;;;61.37;36.30;;;;;;;5.61;73.70;97234.80;1796895;78;25690;-86
2021/10/12 01:12:44;;;;;;;67.58;37.33;;;;;;;5.59;73.71;97234.66;1796969;78;25706;-86
2021/10/12 01:15:11;;;;;;;62.93;36.93;;;;;;;5.59;73.89;97225.28;1796973;78;25792;-85
2021/10/12 01:17:39;;;;;;;62.55;36.35;;;;;;;5.58;73.81;97219.09;1797072;78;25650;-86
2021/10/12 01:20:10;;;;;;;66.05;37.42;;;;;;;5.56;73.88;97213.59;1796861;78;28117;-86
2021/10/12 01:22:46;;;;;;;61.95;37.70;;;;;;;5.57;73.93;97215.26;1796339;78;26468;-86
2021/10/12 01:25:15;;;;;;;65.72;37.42;;;;;;;5.58;74.10;97218.27;1796819;78;25269;-86
2021/10/12 01:27:41;;;;;;;63.13;36.23;;;;;;;5.57;74.07;97207.23;1784024;78;25764;-86
2021/10/12 01:30:10;;;;;;;70.22;38.40;;;;;;;5.59;74.07;97216.74;1770459;79;25712;-87
2021/10/12 01:32:39;;;;;;;63.25;36.15;;;;;;;5.65;74.16;97215.19;1775632;79;27346;-87
2021/10/12 01:35:07;;;;;;;67.82;37.17;;;;;;;5.70;74.21;97216.28;1768555;80;25854;-87
2021/10/12 01:37:34;;;;;;;63.28;36.23;;;;;;;5.72;74.21;97216.09;1781024;79;25872;-85
2021/10/12 01:40:01;;;;;;;63.33;35.40;;;;;;;5.73;74.41;97213.74;1774290;79;26442;-86
2021/10/12 01:42:27;;;;;;;59.65;35.78;;;;;;;5.72;74.50;97217.44;1780764;79;25704;-87
2021/10/12 01:44:54;;;;;;;60.12;35.83;;;;;;;5.69;74.58;97209.77;1775156;80;28080;-87
2021/10/12 01:47:21;;;;;;;67.60;38.85;;;;;;;5.67;74.65;97209.14;1780845;79;25986;-87
2021/10/12 01:49:48;;;;;;;64.00;37.17;;;;;;;5.71;74.71;97205.06;1781077;80;25707;-86
2021/10/12 01:52:15;;;;;;;59.63;37.25;;;;;;;5.74;74.75;97200.67;1781076;80;25653;-87
2021/10/12 01:54:42;;;;;;;68.95;38.50;;;;;;;5.76;74.85;97201.33;1780776;79;25731;-88
2021/10/12 01:57:09;;;;;;;67.95;38.70;;;;;;;5.76;74.80;97190.11;1753858;80;27341;-87
2021/10/12 01:59:36;;;;;;;72.87;39.80;;;;;;;5.78;74.86;97193.94;1774176;80;26469;-87
2021/10/12 02:02:02;;;;;;;65.70;38.42;;;;;;;5.79;74.88;97195.61;1781195;79;25820;-87
2021/10/12 02:04:32;;;;;;;69.53;40.03;;;;;;;5.77;74.97;97194.45;1781003;80;25873;-88
2021/10/12 02:06:58;;;;;;;71.67;39.53;;;;;;;5.78;75.04;97192.61;1780944;80;25703;-87
2021/10/12 02:09:25;;;;;;;78.15;42.75;;;;;;;5.82;75.03;97190.36;1781120;80;27509;-89
2021/10/12 02:11:52;;;;;;;71.70;39.75;;;;;;;5.82;75.14;97195.20;1781047;79;26329;-87
2021/10/12 02:14:19;;;;;;;68.45;38.95;;;;;;;5.83;75.13;97186.16;1781172;79;25766;-86
2021/10/12 02:16:45;;;;;;;67.70;39.25;;;;;;;5.85;75.20;97177.94;1781186;79;25776;-86
2021/10/12 02:19:12;;;;;;;67.60;37.98;;;;;;;5.87;75.19;97179.93;1781130;80;25825;-88
2021/10/12 02:21:39;;;;;;;61.88;39.35;;;;;;;5.87;75.37;97178.59;1781062;79;27295;-87
2021/10/12 02:24:06;;;;;;;61.15;37.70;;;;;;;5.89;75.48;97176.59;1769332;79;25727;-86
2021/10/12 02:26:33;;;;;;;67.92;39.42;;;;;;;5.90;75.55;97178.25;1781043;79;25784;-87
2021/10/12 02:28:59;;;;;;;66.40;39.48;;;;;;;5.91;75.53;97182.09;1791729;78;26503;-86
2021/10/12 02:31:27;;;;;;;64.97;39.10;;;;;;;5.93;75.63;97176.52;1801476;78;25755;-86
2021/10/12 02:33:53;;;;;;;67.75;39.05;;;;;;;5.91;75.72;97173.22;1815171;78;27370;-86
2021/10/12 02:36:20;;;;;;;65.03;38.60;;;;;;;5.92;75.70;97175.69;1796765;78;25875;-86
2021/10/12 02:38:46;;;;;;;66.92;40.23;;;;;;;5.95;75.80;97181.19;1796957;78;25847;-85
2021/10/12 02:41:13;;;;;;;60.12;37.45;;;;;;;5.97;75.95;97177.81;1797056;78;25817;-88
2021/10/12 02:43:40;;;;;;;68.67;38.98;;;;;;;5.94;76.03;97174.99;1797079;78;25827;-89
2021/10/12 02:46:07;;;;;;;67.05;39.33;;;;;;;5.93;76.02;97175.17;1797094;78;28025;-88
2021/10/12 02:48:34;;;;;;;67.58;40.00;;;;;;;5.97;76.09;97181.83;1796896;78;25698;-86
2021/10/12 02:51:01;;;;;;;63.58;38.78;;;;;;;5.97;76.08;97175.97;1797104;78;25763;-88
2021/10/12 02:53:27;;;;;;;69.82;40.35;;;;;;;6.00;76.08;97178.78;1797034;78;25787;-87
2021/10/12 02:55:54;;;;;;;67.10;39.55;;;;;;;6.03;76.19;97179.25;1797096;78;25694;-87
2021/10/12 02:58:20;;;;;;;65.17;37.20;;;;;;;6.03;76.19;97169.88;1797024;78;27412;-86
2021/10/12 03:00:47;;;;;;;65.95;38.08;;;;;;;6.03;76.21;97170.38;1796927;78;25815;-86
2021/10/12 03:03:14;;;;;;;62.98;40.23;;;;;;;6.03;76.20;97171.20;1796989;78;25842;-88
2021/10/12 03:05:46;;;;;;;66.25;39.15;;;;;;;6.05;76.24;97169.14;1797000;78;26511;-88
2021/10/12 03:08:13;;;;;;;71.07;40.80;;;;;;;6.06;76.26;97168.13;1797109;78;25784;-87
2021/10/12 03:10:39;;;;;;;67.62;37.85;;;;;;;6.08;76.34;97167.44;1796583;78;27405;-87
2021/10/12 03:13:06;;;;;;;61.02;38.45;;;;;;;6.06;76.37;97166.79;1783187;78;25747;-88
2021/10/12 03:15:33;;;;;;;61.02;37.48;;;;;;;6.07;76.44;97164.44;1796975;78;25736;-88
2021/10/12 03:18:00;;;;;;;60.60;37.10;;;;;;;6.08;76.45;97157.23;1783575;78;26563;-87
2021/10/12 03:20:26;;;;;;;62.62;39.00;;;;;;;6.10;76.49;97158.70;1797053;78;25836;-87
2021/10/12 03:22:53;;;;;;;68.05;39.63;;;;;;;6.12;76.54;97158.52;1796587;78;28249;-89
2021/10/12 03:25:19;;;;;;;69.95;38.53;;;;;;;6.12;76.55;97153.98;1796267;78;26293;-86
2021/10/12 03:27:46;;;;;;;66.97;41.35;;;;;;;6.14;76.60;97150.61;1796286;78;25749;-86
2021/10/12 03:30:13;;;;;;;63.15;38.48;;;;;;;6.20;76.59;97154.88;1780780;80;25934;-87
2021/10/12 03:32:39;;;;;;;68.87;39.60;;;;;;;6.24;76.66;97145.45;1781073;79;25776;-87
2021/10/12 03:35:07;;;;;;;65.10;38.45;;;;;;;6.24;76.66;97154.83;1781127;79;27445;-86
2021/10/12 03:37:33;;;;;;;69.87;38.95;;;;;;;6.25;76.78;97157.83;1780744;79;25869;-86
2021/10/12 03:40:01;;;;;;;62.85;40.33;;;;;;;6.21;76.82;97148.50;1780797;79;25726;-87
2021/10/12 03:42:27;;;;;;;69.62;41.10;;;;;;;6.22;76.83;97147.48;1780803;80;25794;-87
2021/10/12 03:44:54;;;;;;;66.60;40.20;;;;;;;6.24;76.91;97147.62;1780982;80;25844;-86
2021/10/12 03:47:20;;;;;;;65.28;39.38;;;;;;;6.25;76.95;97151.13;1781139;79;27358;-86
2021/10/12 03:49:47;;;;;;;64.00;39.00;;;;;;;6.27;77.01;97153.95;1780940;79;25822;-87
2021/10/12 03:52:14;;;;;;;65.55;39.75;;;;;;;6.29;77.06;97145.18;1781122;79;25229;-86
2021/10/12 03:54:40;;;;;;;67.97;39.05;;;;;;;6.32;77.07;97146.15;1781102;79;25792;-88
2021/10/12 03:57:07;;;;;;;71.87;39.85;;;;;;;6.34;77.13;97139.26;1781122;79;25749;-87
2021/10/12 03:59:33;;;;;;;62.30;37.15;;;;;;;6.35;77.18;97143.59;1781026;79;27384;-86
2021/10/12 04:02:00;;;;;;;63.10;38.85;;;;;;;6.35;77.22;97140.41;1780979;79;25817;-86
2021/10/12 04:04:27;;;;;;;66.42;39.13;;;;;;;6.36;77.26;97137.22;1780737;80;25232;-88
2021/10/12 04:06:53;;;;;;;57.75;36.60;;;;;;;6.37;77.25;97137.55;1781037;79;25746;-86
2021/10/12 04:09:20;;;;;;;64.60;37.67;;;;;;;6.37;77.31;97130.33;1781125;80;25868;-87
2021/10/12 04:11:47;;;;;;;66.62;37.78;;;;;;;6.39;77.36;97128.80;1781069;79;27342;-87
2021/10/12 04:14:13;;;;;;;57.90;38.15;;;;;;;6.40;77.47;97121.08;1781007;79;25748;-87
2021/10/12 04:16:40;;;;;;;58.65;37.13;;;;;;;6.39;77.49;97122.10;1781063;80;25738;-87
2021/10/12 04:19:06;;;;;;;65.50;37.85;;;;;;;6.39;77.50;97122.10;1781088;79;26594;-86
2021/10/12 04:21:33;;;;;;;62.62;36.68;;;;;;;6.43;77.55;97120.16;1781047;79;25636;-88
2021/10/12 04:23:59;;;;;;;66.72;39.92;;;;;;;6.44;77.57;97120.99;1781084;79;27195;-86
2021/10/12 04:26:27;;;;;;;62.23;39.90;;;;;;;6.40;77.55;97119.20;1781028;79;25868;-86
2021/10/12 04:28:53;;;;;;;61.88;38.42;;;;;;;6.45;77.59;97117.30;1780739;79;25703;-86
2021/10/12 04:31:20;;;;;;;69.75;40.43;;;;;;;6.49;77.58;97118.07;1781073;79;26445;-86
2021/10/12 04:33:46;;;;;;;67.55;41.37;;;;;;;6.54;77.60;97118.81;1781189;79;25733;-86
2021/10/12 04:36:13;;;;;;;70.70;43.02;;;;;;;6.57;77.50;97117.09;1781053;79;28263;-86
2021/10/12 04:38:40;;;;;;;73.37;45.17;;;;;;;6.61;77.44;97114.87;1780692;79;25690;-87
2021/10/12 04:41:08;;;;;;;74.77;44.90;;;;;;;6.61;77.44;97115.70;1780991;79;25826;-86
2021/10/12 04:43:36;;;;;;;79.35;45.43;;;;;;;6.59;77.42;97115.05;1780817;80;25832;-86
2021/10/12 04:46:06;;;;;;;77.03;47.17;;;;;;;6.58;77.46;97109.38;1781166;79;25676;-86
2021/10/12 04:48:32;;;;;;;79.25;47.88;;;;;;;6.55;77.54;97116.45;1781133;79;27424;-87
2021/10/12 04:50:59;;;;;;;88.47;52.65;;;;;;;6.56;77.53;97109.23;1781100;80;25766;-87
2021/10/12 04:53:25;;;;;;;88.35;49.75;;;;;;;6.56;77.55;97104.70;1781087;79;25776;-86
2021/10/12 04:55:52;;;;;;;86.50;51.30;;;;;;;6.54;77.56;97101.38;1781001;79;25772;-86
2021/10/12 04:58:19;;;;;;;88.87;55.05;;;;;;;6.55;77.53;97095.52;1781025;80;25776;-86
2021/10/12 05:00:45;;;;;;;95.60;55.98;;;;;;;6.56;77.62;97096.66;1781127;80;27328;-85
2021/10/12 05:03:12;;;;;;;88.45;52.90;;;;;;;6.56;77.65;97091.30;1780834;79;26316;-86
2021/10/12 05:05:39;;;;;;;91.57;51.95;;;;;;;6.53;77.67;97086.31;1781022;80;25766;-87
2021/10/12 05:08:05;;;;;;;84.85;48.95;;;;;;;6.53;77.71;97089.50;1761534;79;25667;-87
2021/10/12 05:10:32;;;;;;;79.67;50.23;;;;;;;6.52;77.73;97091.36;1779109;79;25825;-87
2021/10/12 05:12:59;;;;;;;71.62;46.75;;;;;;;6.53;77.68;97086.31;1781041;79;27409;-86
2021/10/12 05:15:28;;;;;;;74.05;46.08;;;;;;;6.53;77.64;97094.36;1780933;79;26525;-87
2021/10/12 05:17:56;;;;;;;72.12;45.30;;;;;;;6.54;77.68;97093.84;1771159;79;25715;-88
2021/10/12 05:20:22;;;;;;;72.95;43.45;;;;;;;6.52;77.70;97090.02;1774026;79;26333;-86
2021/10/12 05:22:49;;;;;;;70.05;42.45;;;;;;;6.51;77.78;97096.43;1780612;80;25438;-87
2021/10/12 05:25:16;;;;;;;68.28;43.83;;;;;;;6.49;77.85;97092.59;1781203;79;27534;-86
2021/10/12 05:27:43;;;;;;;69.47;42.10;;;;;;;6.52;77.89;97090.02;1759556;79;26398;-86
2021/10/12 05:30:12;;;;;;;69.25;42.30;;;;;;;6.55;77.93;97099.02;1772328;79;25774;-86
2021/10/12 05:32:41;;;;;;;65.25;41.53;;;;;;;6.55;77.95;97093.66;1779280;79;26493;-87
2021/10/12 05:35:09;;;;;;;64.80;40.67;;;;;;;6.58;78.01;97101.33;1763320;79;25746;-86
2021/10/12 05:37:36;;;;;;;68.40;42.05;;;;;;;6.58;78.04;97105.34;1781125;79;27347;-87
2021/10/12 05:40:05;;;;;;;65.03;41.95;;;;;;;6.59;78.03;97098.13;1781218;79;25840;-86
2021/10/12 05:42:31;;;;;;;71.30;46.33;;;;;;;6.61;78.06;97100.95;1781096;79;25603;-86
2021/10/12 05:44:58;;;;;;;70.67;45.90;;;;;;;6.62;78.16;97097.24;1780747;80;26373;-86
2021/10/12 05:47:24;;;;;;;63.90;40.40;;;;;;;6.64;78.13;97092.48;1781039;79;25670;-85
2021/10/12 05:49:51;;;;;;;66.67;41.95;;;;;;;6.66;78.13;97097.16;1781139;79;27176;-87
2021/10/12 05:52:20;;;;;;;63.33;40.92;;;;;;;6.70;78.14;97094.92;1781265;80;26499;-86
2021/10/12 05:54:54;;;;;;;57.58;38.35;;;;;;;6.73;78.14;97090.52;1781109;79;25710;-87
2021/10/12 05:57:34;;;;;;;60.80;37.95;;;;;;;6.74;78.19;97088.16;1780563;79;25840;-86
2021/10/12 05:59:49;;;;;;;56.65;37.88;;;;;;;6.78;78.21;97086.72;1778762;79;25907;-87
2021/10/12 06:02:15;;;;;;;59.75;38.28;;;;;;;6.84;78.20;97087.30;1781087;79;27394;-86
2021/10/12 06:04:42;;;;;;;59.70;38.17;;;;;;;6.88;78.15;97090.42;1781023;80;26350;-88
2021/10/12 06:07:08;;;;;;;62.78;38.75;;;;;;;6.92;78.23;97091.67;1781083;79;25765;-86
2021/10/12 06:09:35;;;;;;;62.67;38.53;;;;;;;6.95;78.38;97089.94;1781209;79;25794;-88
2021/10/12 06:12:02;;;;;;;63.35;38.50;;;;;;;6.98;78.38;97089.56;1781200;79;25741;-87
2021/10/12 06:14:28;;;;;;;54.65;36.10;;;;;;;7.03;78.39;97076.36;1781133;79;28000;-87
2021/10/12 06:16:55;;;;;;;59.20;35.92;;;;;;;7.09;78.42;97084.47;1781191;79;25706;-86
2021/10/12 06:19:22;;;;;;;56.58;35.48;;;;;;;7.14;78.46;97080.66;1781318;79;25817;-88
2021/10/12 06:21:49;;;;;;;63.05;37.20;;;;;;;7.19;78.41;97084.11;1781167;80;25717;-87
2021/10/12 06:24:16;;;;;;;60.38;39.55;;;;;;;7.24;78.41;97077.64;1781134;80;25753;-86
2021/10/12 06:26:42;;;;;;;68.62;43.92;;;;;;;7.32;78.33;97079.33;1781347;80;27331;-87
2021/10/12 06:29:09;;;;;;;68.22;43.83;;;;;;;7.37;78.15;97078.20;1783708;79;26175;-88
2021/10/12 06:31:36;;;;;;;73.30;46.37;;;;;;;7.37;77.99;97079.03;1797153;78;25707;-89
2021/10/12 06:34:02;;;;;;;56.88;37.80;;;;;;;7.32;77.88;97081.50;1797143;78;26349;-87
2021/10/12 06:36:31;;;;;;;58.35;35.08;;;;;;;7.29;77.79;97084.58;1778280;78;26466;-86
2021/10/12 06:38:57;;;;;;;49.70;30.02;;;;;;;7.28;77.72;97082.91;1797052;78;27393;-86
2021/10/12 06:41:24;;;;;;;47.98;28.10;;;;;;;7.33;77.69;97083.16;1797062;78;25721;-87
2021/10/12 06:43:51;;;;;;;47.27;28.47;;;;;;;7.40;77.55;97086.70;1796810;78;25755;-85
2021/10/12 06:46:17;;;;;;;40.52;25.95;;;;;;;7.44;77.41;97082.59;1797096;78;26337;-86
2021/10/12 06:48:44;;;;;;;37.05;23.95;;;;;;;7.45;77.11;97093.66;1797195;78;25820;-87
2021/10/12 06:51:11;;;;;;;37.75;24.87;;;;;;;7.47;77.00;97091.60;1797092;78;28148;-86
2021/10/12 06:53:42;;;;;;;39.03;25.48;;;;;;;7.49;76.94;97086.83;1796990;78;25713;-86
2021/10/12 06:56:06;;;;;;;39.55;24.87;;;;;;;7.50;76.85;97086.32;1796624;78;25721;-87
2021/10/12 06:58:32;;;;;;;41.42;25.27;;;;;;;7.49;76.83;97083.31;1797006;78;26456;-86
2021/10/12 07:00:59;;;;;;;40.40;25.40;;;;;;;7.50;76.88;97087.66;1797211;78;26436;-86
2021/10/12 07:03:25;;;;;;;45.10;25.85;;;;;;;7.52;76.82;97078.90;1797096;78;27328;-85
2021/10/12 07:05:52;;;;;;;37.83;25.50;;;;;;;7.55;76.82;97089.25;1796982;78;26506;-86
2021/10/12 07:08:19;;;;;;;43.45;26.23;;;;;;;7.56;76.70;97083.68;1796808;78;25684;-85
2021/10/12 07:10:45;;;;;;;38.13;25.55;;;;;;;7.58;76.65;97088.86;1797103;78;26556;-86
2021/10/12 07:13:13;;;;;;;43.23;25.72;;;;;;;7.61;76.63;97090.32;1797206;78;25796;-86
2021/10/12 07:15:42;;;;;;;37.40;23.73;;;;;;;7.65;76.65;97088.87;1797016;78;27555;-86
2021/10/12 07:18:11;;;;;;;38.90;24.75;;;;;;;7.66;76.71;97090.02;1796845;78;25859;-86
2021/10/12 07:20:39;;;;;;;39.83;25.30;;;;;;;7.68;76.71;97081.77;1791087;78;25728;-85
2021/10/12 07:23:07;;;;;;;40.30;25.60;;;;;;;7.71;76.75;97085.40;1781502;78;25823;-85
2021/10/12 07:25:33;;;;;;;40.00;26.10;;;;;;;7.73;76.74;97088.72;1797155;78;25688;-86
2021/10/12 07:28:00;;;;;;;41.13;25.70;;;;;;;7.77;76.67;97084.58;1797223;78;27369;-85
2021/10/12 07:30:27;;;;;;;38.25;23.57;;;;;;;7.78;76.58;97081.70;1796870;78;25737;-86
2021/10/12 07:32:53;;;;;;;38.10;23.45;;;;;;;7.81;76.57;97080.47;1800535;78;25673;-87
2021/10/12 07:35:20;;;;;;;37.28;24.02;;;;;;;7.82;76.41;97082.13;1810835;78;26275;-86
2021/10/12 07:37:47;;;;;;;34.55;23.18;;;;;;;7.85;76.54;97087.08;1797043;78;25725;-86
2021/10/12 07:40:13;;;;;;;35.85;23.73;;;;;;;7.87;76.41;97079.64;1797120;78;27348;-86
2021/10/12 07:42:40;;;;;;;35.25;23.70;;;;;;;7.84;76.33;97082.25;1796945;78;25779;-86
2021/10/12 07:45:09;;;;;;;42.85;25.85;;;;;;;7.87;76.32;97086.36;1774653;78;25781;-86
2021/10/12 07:47:35;;;;;;;37.78;24.50;;;;;;;7.88;76.28;97085.34;1797069;78;25741;-85
2021/10/12 07:50:03;;;;;;;35.50;24.02;;;;;;;7.87;76.30;97080.48;1796891;78;25740;-85
2021/10/12 07:52:32;;;;;;;43.02;27.67;;;;;;;7.79;76.17;97076.64;1765801;79;27363;-85
2021/10/12 07:57:34;;;;;;;35.33;24.23;;;;;;;7.80;76.44;97072.09;1811810;78;25246;-86
2021/10/12 08:00:00;;;;;;;35.73;23.07;;;;;;;7.82;76.40;97075.41;1793152;78;25718;-84
2021/10/12 08:02:27;;;;;;;40.38;24.00;;;;;;;7.84;76.35;97074.70;1765565;78;25485;-86
2021/10/12 08:04:53;;;;;;;31.50;22.07;;;;;;;7.86;76.30;97077.98;1790938;78;27354;-86
2021/10/12 08:07:22;;;;;;;35.85;23.45;;;;;;;7.86;76.43;97072.09;1796690;78;25995;-85
2021/10/12 08:09:49;;;;;;;35.92;23.57;;;;;;;7.89;76.53;97065.50;1796007;78;25650;-86
2021/10/12 08:12:15;;;;;;;33.90;23.75;;;;;;;7.95;76.68;97060.67;1774566;78;25780;-85
2021/10/12 08:14:46;;;;;;;34.18;22.73;;;;;;;8.07;76.81;97053.66;1796919;78;25826;-86
2021/10/12 08:17:10;;;;;;;34.50;20.57;;;;;;;8.19;76.64;97052.03;1796511;78;27408;-86
2021/10/12 08:19:37;;;;;;;32.98;20.30;;;;;;;8.26;76.37;97049.34;1812258;78;25777;-86
2021/10/12 08:22:04;;;;;;;30.10;20.88;;;;;;;8.28;76.22;97052.14;1792022;78;25691;-85
2021/10/12 08:24:31;;;;;;;31.55;21.52;;;;;;;8.29;76.16;97048.42;1799581;78;26893;-86
2021/10/12 08:26:58;;;;;;;31.57;19.98;;;;;;;8.29;76.24;97051.63;1801877;78;25675;-86
2021/10/12 08:29:24;;;;;;;31.12;19.45;;;;;;;8.28;76.30;97045.42;1797064;78;27365;-85
2021/10/12 08:31:51;;;;;;;33.13;18.35;;;;;;;8.31;76.21;97046.88;1785536;78;25829;-86
2021/10/12 08:34:17;;;;;;;35.13;19.23;;;;;;;8.33;76.18;97042.67;1795088;78;25271;-86
2021/10/12 08:36:44;;;;;;;29.52;18.32;;;;;;;8.34;76.15;97039.75;1796673;78;25827;-86
2021/10/12 08:39:11;;;;;;;30.68;19.05;;;;;;;8.37;76.07;97043.89;1781956;78;25741;-86
2021/10/12 08:41:57;;;;;;;28.40;16.62;;;;;;;8.40;76.10;97041.63;1788996;78;27217;-86
2021/10/12 08:44:24;;;;;;;32.98;17.52;;;;;;;8.45;75.98;97046.41;1793102;78;25773;-86
2021/10/12 08:46:54;;;;;;;29.07;17.27;;;;;;;8.49;76.05;97051.66;1800309;78;25849;-86
2021/10/12 08:49:20;;;;;;;28.25;17.65;;;;;;;8.52;76.12;97046.70;1810602;78;25913;-85
2021/10/12 08:51:47;;;;;;;27.42;18.85;;;;;;;8.52;76.22;97043.18;1797142;78;25797;-85
2021/10/12 08:54:14;;;;;;;28.02;17.65;;;;;;;8.57;76.23;97043.40;1796932;78;27439;-85
2021/10/12 08:56:41;;;;;;;21.80;15.15;;;;;;;8.58;76.31;97045.86;1796790;78;25698;-85
2021/10/12 08:59:07;;;;;;;19.70;11.78;;;;;;;8.61;76.19;97041.41;1797120;78;26195;-84
2021/10/12 09:01:54;;;;;;;15.03;9.78;;;;;;;8.60;75.89;97045.66;1803042;78;26555;-86
2021/10/12 09:04:21;;;;;;;13.70;9.63;;;;;;;8.58;75.75;97032.92;1809344;77;25849;-85
2021/10/12 09:06:58;;;;;;;8.18;6.50;;;;;;;8.59;75.72;97038.61;1774934;78;27390;-85
2021/10/12 09:09:34;;;;;;;9.20;6.65;;;;;;;8.62;75.47;97036.86;1795352;78;25753;-84
2021/10/12 09:12:02;;;;;;;9.80;5.83;;;;;;;8.59;75.23;97040.78;1797165;78;25303;-86
2021/10/12 09:14:29;;;;;;;9.65;5.53;;;;;;;8.57;75.22;97035.33;1797075;78;25741;-85
2021/10/12 09:17:05;;;;;;;13.78;7.87;;;;;;;8.58;75.24;97039.64;1774869;78;25224;-85
2021/10/12 09:19:35;;;;;;;14.87;8.38;;;;;;;8.56;75.28;97041.73;1797206;78;27348;-85
2021/10/12 09:22:08;;;;;;;8.85;5.78;;;;;;;8.53;75.35;97047.53;1790701;78;25460;-84
2021/10/12 09:24:40;;;;;;;11.83;6.80;;;;;;;8.52;75.37;97045.87;1783238;78;25770;-85
2021/10/12 09:27:10;;;;;;;9.90;7.28;;;;;;;8.53;75.31;97047.53;1797332;78;25691;-86
2021/10/12 09:32:11;;;;;;;11.10;6.72;;;;;;;8.42;75.23;97034.70;1796620;78;27405;-86
2021/10/12 09:34:41;;;;;;;8.68;5.78;;;;;;;8.43;75.28;97037.70;1789885;78;25639;-86
2021/10/12 09:37:08;;;;;;;11.08;6.72;;;;;;;8.39;75.36;97035.94;1769707;78;25781;-86
2021/10/12 09:39:45;;;;;;;8.40;6.10;;;;;;;8.34;75.48;97030.34;1796941;78;25691;-86
2021/10/12 09:42:17;;;;;;;8.90;6.25;;;;;;;8.34;75.66;97028.98;1797113;78;25730;-86
2021/10/12 09:44:57;;;;;;;;;;;;;;;8.34;75.69;97038.41;1799623;78;28177;-85
2021/10/12 09:47:25;;;;;;;9.70;6.87;;;;;;;8.38;75.94;97023.52;1776154;78;26026;-87
2021/10/12 09:50:11;;;;;;;11.75;7.83;;;;;;;8.38;75.92;97030.76;1757479;79;25243;-86
2021/10/12 09:52:42;;;;;;;11.48;8.60;;;;;;;8.44;76.00;97031.30;1756463;80;25670;-88
2021/10/12 09:55:09;;;;;;;13.75;9.78;;;;;;;8.53;76.09;97029.52;1756370;80;25792;-86
2021/10/12 09:57:36;;;;;;;15.35;9.93;;;;;;;8.58;75.94;97024.84;1750115;80;28195;-86
2021/10/12 10:00:06;;;;;;;20.30;10.95;;;;;;;8.64;75.88;97022.69;1741581;80;25804;-86
2021/10/12 10:02:37;;;;;;;21.25;12.30;;;;;;;8.72;76.01;97015.73;1756334;80;25784;-83
2021/10/12 10:05:05;;;;;;;16.77;11.60;;;;;;;8.84;76.01;97016.75;1756315;80;25795;-84
2021/10/12 10:07:40;;;;;;;17.80;12.28;;;;;;;8.87;76.09;97013.65;1756384;80;25790;-84
2021/10/12 10:10:08;;;;;;;19.23;12.78;;;;;;;8.85;75.70;97010.33;1755224;80;27338;-84
2021/10/12 10:12:35;;;;;;;17.70;11.70;;;;;;;8.97;75.96;97007.30;1756115;80;26030;-82
2021/10/12 10:15:03;;;;;;;16.25;12.50;;;;;;;9.21;75.91;97004.95;1756248;80;25970;-86
2021/10/12 10:17:32;;;;;;;17.02;11.55;;;;;;;9.37;75.46;97009.88;1756379;80;26497;-83
2021/10/12 10:20:05;;;;;;;18.55;11.73;;;;;;;9.46;75.12;97009.94;1756293;80;25726;-83
2021/10/12 10:22:47;;;;;;;14.75;10.90;;;;;;;9.48;74.79;97009.21;1756336;80;28243;-84
2021/10/12 10:25:34;;;;;;;15.38;10.70;;;;;;;9.46;74.48;97012.64;1755234;80;25925;-85
2021/10/12 10:28:23;;;;;;;16.23;9.40;;;;;;;9.43;74.30;97013.05;1755905;80;25807;-85
2021/10/12 10:30:59;;;;;;;16.50;9.98;;;;;;;9.39;73.96;97012.67;1752231;80;25717;-84
2021/10/12 10:33:33;;;;;;;15.90;10.30;;;;;;;9.33;73.76;97001.91;1712575;82;25751;-85
2021/10/12 10:36:03;;;;;;;16.32;10.30;;;;;;;9.29;73.90;97003.39;1726722;81;27440;-84
2021/10/12 10:38:48;;;;;;;18.73;10.20;;;;;;;9.27;73.81;96997.39;1741230;81;25830;-87
2021/10/12 10:41:20;;;;;;;17.37;9.85;;;;;;;9.30;73.87;96998.28;1741729;81;25668;-90
2021/10/12 10:44:00;;;;;;;16.75;10.93;;;;;;;9.30;73.79;96992.91;1741777;81;25824;-86
2021/10/12 10:46:38;;;;;;;13.65;10.32;;;;;;;9.33;73.63;96993.83;1720616;81;25755;-85
2021/10/12 10:49:23;;;;;;;15.68;10.82;;;;;;;9.34;73.63;96992.80;1742021;81;27377;-85
2021/10/12 10:52:03;;;;;;;14.98;10.13;;;;;;;9.38;73.58;96985.95;1741771;81;25862;-86
2021/10/12 10:54:38;;;;;;;16.45;9.50;;;;;;;9.44;73.32;96984.25;1741949;81;25759;-87
2021/10/12 10:57:21;;;;;;;15.93;9.83;;;;;;;9.50;73.15;96971.28;1727005;81;25902;-86
2021/10/12 10:59:49;;;;;;;;;;;;;;;9.57;73.04;96972.89;1744738;81;25812;-84
2021/10/12 11:02:33;;;;;;;15.80;9.68;;;;;;;9.65;72.97;96962.40;1742023;81;27350;-84
2021/10/12 11:05:00;;;;;;;17.37;9.18;;;;;;;9.70;73.19;96960.69;1741992;81;25740;-85
2021/10/12 11:07:29;;;;;;;18.05;9.13;;;;;;;9.70;72.26;96960.69;1783614;80;25777;-85
2021/10/12 11:09:56;;;;;;;15.20;8.05;;;;;;;9.72;72.29;96957.27;1737445;81;25776;-84
2021/10/12 11:12:30;;;;;;;22.27;11.33;;;;;;;9.82;72.19;96960.00;1783997;80;25707;-85
2021/10/12 11:15:08;;;;;;;12.78;8.18;;;;;;;9.88;71.91;96955.10;1769474;78;27576;-84
2021/10/12 11:17:35;;;;;;;11.70;6.85;;;;;;;9.94;71.66;96948.82;1786925;78;25805;-85
2021/10/12 11:20:07;;;;;;;13.50;8.15;;;;;;;9.97;71.47;96944.34;1786977;78;25636;-84
2021/10/12 11:22:42;;;;;;;;;;;;;;;9.99;71.04;96944.96;1744379;80;25862;-85
2021/10/12 11:25:10;;;;;;;14.10;6.22;;;;;;;9.98;71.04;96947.35;1756084;81;26343;-84
2021/10/12 11:27:43;;;;;;;10.75;6.15;;;;;;;10.23;71.23;96934.73;1782081;78;28026;-83
2021/10/12 11:30:13;;;;;;;12.15;5.33;;;;;;;10.66;70.65;96936.09;1786297;78;25971;-85
2021/10/12 11:32:40;;;;;;;10.58;5.33;;;;;;;10.94;69.64;96923.44;1786681;78;25753;-84
2021/10/12 11:35:12;;;;;;;12.03;5.90;;;;;;;11.07;69.35;96926.52;1787109;78;26600;-84
2021/10/12 11:37:53;;;;;;;12.50;6.10;;;;;;;11.35;68.95;96920.56;1787385;80;26629;-83